Terminal Aerodrome Forecast
Issued by NWS

Home | Current Version | Previous Version | Text Only | Print | Product List | Glossary On
Versions: 1 2 3 4 5 6 7 8 9 10 11 12 13 14 15 16 17 18 19 20 21 22
000
FTUS43 KIND 051700
TAFLAF
TAF
KLAF 051720Z 0518/0618 23011G17KT P6SM SCT050
     FM052300 22005KT P6SM SCT060
     FM060300 VRB02KT P6SM SCT250
      TEMPO 0610/0612 5SM BR
     FM061500 21007KT P6SM SCT050=

USA.gov is the U.S. government's official web portal to all federal, state and local government web resources and services.